Time;durP1;ratioP1;P1;durP2;ratioP2;P2;SDS_P1;SDS_P2;PMS_P1;PMS_P2;Temp;Humidity;BMP_temperature;BMP_pressure;BME280_temperature;BME280_humidity;BME280_pressure;Samples;Min_cycle;Max_cycle;Signal;HPM_P1;HPM_P2
2022/10/30 00:01:45;;;;;;;29.70;14.75;;;;;;;;;;5046175;28;20082;-62
2022/10/30 00:04:11;;;;;;;31.17;15.75;;;;;;;;;;5072617;28;20044;-62
2022/10/30 00:06:37;;;;;;;29.13;14.73;;;;;;;;;;5041038;28;20037;-62
2022/10/30 00:09:04;;;;;;;27.52;15.63;;;;;;;;;;5038156;28;20185;-62
2022/10/30 00:11:30;;;;;;;38.97;15.15;;;;;;;;;;5035653;28;20127;-62
2022/10/30 00:13:56;;;;;;;28.60;14.68;;;;;;;;;;5036965;28;20037;-62
2022/10/30 00:16:22;;;;;;;29.23;14.85;;;;;;;;;;5035929;28;20079;-63
2022/10/30 00:18:48;;;;;;;32.10;15.38;;;;;;;;;;5035224;28;20033;-62
2022/10/30 00:21:15;;;;;;;27.52;15.43;;;;;;;;;;5038456;28;20606;-63
2022/10/30 00:23:48;;;;;;;28.98;15.48;;;;;;;;;;5035672;28;20041;-62
2022/10/30 00:26:15;;;;;;;31.40;14.77;;;;;;;;;;5036411;28;20083;-63
2022/10/30 00:28:41;;;;;;;30.90;15.23;;;;;;;;;;5035122;28;20037;-62
2022/10/30 00:31:07;;;;;;;24.38;14.23;;;;;;;;;;5036485;28;20042;-62
2022/10/30 00:33:33;;;;;;;28.85;16.15;;;;;;;;;;5032653;28;20378;-63
2022/10/30 00:36:00;;;;;;;33.55;16.30;;;;;;;;;;5034955;28;20045;-62
2022/10/30 00:38:26;;;;;;;25.73;15.10;;;;;;;;;;5040780;28;20116;-62
2022/10/30 00:40:52;;;;;;;28.40;14.23;;;;;;;;;;5036342;28;20049;-62
2022/10/30 00:43:34;;;;;;;28.65;14.27;;;;;;;;;;5037295;28;20055;-62
2022/10/30 00:46:07;;;;;;;31.58;14.23;;;;;;;;;;5039451;28;20037;-62
2022/10/30 00:48:34;;;;;;;28.05;13.52;;;;;;;;;;5042654;28;20049;-63
2022/10/30 00:51:01;;;;;;;23.58;13.00;;;;;;;;;;5080524;28;20049;-62
2022/10/30 00:53:28;;;;;;;28.13;14.00;;;;;;;;;;5045860;28;20110;-62
2022/10/30 00:55:55;;;;;;;29.83;13.77;;;;;;;;;;5044096;28;20140;-62
2022/10/30 00:58:25;;;;;;;33.92;14.55;;;;;;;;;;5046199;28;20322;-62
2022/10/30 01:00:53;;;;;;;23.10;14.25;;;;;;;;;;5047886;28;20396;-63
2022/10/30 01:03:20;;;;;;;32.83;16.90;;;;;;;;;;5040916;28;20048;-63
2022/10/30 01:05:48;;;;;;;28.42;15.00;;;;;;;;;;5044046;28;20037;-62
2022/10/30 01:08:14;;;;;;;27.77;14.60;;;;;;;;;;5047944;28;20072;-63
2022/10/30 01:10:41;;;;;;;31.88;14.48;;;;;;;;;;5042888;28;20041;-62
2022/10/30 01:13:07;;;;;;;27.60;14.18;;;;;;;;;;5049554;28;20037;-62
2022/10/30 01:15:36;;;;;;;28.67;13.75;;;;;;;;;;5043129;28;20079;-62
2022/10/30 01:18:13;;;;;;;29.67;14.98;;;;;;;;;;5040544;28;20072;-62
2022/10/30 01:20:39;;;;;;;30.30;14.13;;;;;;;;;;5038392;28;20045;-62
2022/10/30 01:23:06;;;;;;;27.85;13.60;;;;;;;;;;5038034;28;20144;-62
2022/10/30 01:25:38;;;;;;;29.23;15.38;;;;;;;;;;5038033;28;20040;-62
2022/10/30 01:28:10;;;;;;;27.90;14.25;;;;;;;;;;5039278;28;20419;-62
2022/10/30 01:30:46;;;;;;;26.23;13.60;;;;;;;;;;5039944;28;20649;-62
2022/10/30 01:33:18;;;;;;;25.88;14.18;;;;;;;;;;5039028;28;20076;-62
2022/10/30 01:35:53;;;;;;;29.83;14.68;;;;;;;;;;5038331;28;20045;-62
2022/10/30 01:38:23;;;;;;;31.48;15.57;;;;;;;;;;5039541;28;20032;-62
2022/10/30 01:40:49;;;;;;;27.73;14.48;;;;;;;;;;5041564;28;20083;-62
2022/10/30 01:43:16;;;;;;;25.00;14.57;;;;;;;;;;5042366;28;20136;-62
2022/10/30 01:45:55;;;;;;;28.17;15.73;;;;;;;;;;5040356;28;20095;-62
2022/10/30 01:48:42;;;;;;;27.17;15.85;;;;;;;;;;5045058;28;20045;-63
2022/10/30 01:51:19;;;;;;;26.17;15.35;;;;;;;;;;5038273;28;20147;-62
2022/10/30 01:53:54;;;;;;;30.02;15.48;;;;;;;;;;5039957;28;20137;-62
2022/10/30 01:56:28;;;;;;;27.25;14.40;;;;;;;;;;5048577;28;20044;-62
2022/10/30 01:59:02;;;;;;;29.70;14.48;;;;;;;;;;5042350;28;20396;-63
2022/10/30 02:01:32;;;;;;;26.67;15.05;;;;;;;;;;5042729;28;20107;-63
2022/10/30 02:03:58;;;;;;;22.35;13.70;;;;;;;;;;5045239;28;20041;-62
2022/10/30 02:06:25;;;;;;;32.63;16.08;;;;;;;;;;5044242;28;20091;-62
2022/10/30 02:08:54;;;;;;;23.77;15.48;;;;;;;;;;5047341;28;20063;-62
2022/10/30 02:11:21;;;;;;;29.13;14.60;;;;;;;;;;5047911;28;20047;-62
2022/10/30 02:13:48;;;;;;;35.03;14.60;;;;;;;;;;5045640;28;20067;-62
2022/10/30 02:16:14;;;;;;;31.48;15.30;;;;;;;;;;5042214;28;20040;-62
2022/10/30 02:18:40;;;;;;;27.73;14.75;;;;;;;;;;5038424;28;20033;-62
2022/10/30 02:21:07;;;;;;;31.15;15.02;;;;;;;;;;5037929;28;20049;-62
2022/10/30 02:23:34;;;;;;;30.17;15.65;;;;;;;;;;5069548;28;20091;-63
2022/10/30 02:26:00;;;;;;;27.40;15.05;;;;;;;;;;5042289;28;20053;-62
2022/10/30 02:28:26;;;;;;;29.73;15.65;;;;;;;;;;5037148;28;20060;-62
2022/10/30 02:30:52;;;;;;;27.75;15.35;;;;;;;;;;5038186;28;20143;-63
2022/10/30 02:33:18;;;;;;;27.80;15.30;;;;;;;;;;5031233;28;20049;-62
2022/10/30 02:35:45;;;;;;;29.25;15.07;;;;;;;;;;5038533;28;20044;-62
2022/10/30 02:38:11;;;;;;;28.73;13.80;;;;;;;;;;5040784;28;20041;-62
2022/10/30 02:40:37;;;;;;;31.42;14.65;;;;;;;;;;5037037;28;20067;-62
2022/10/30 02:43:03;;;;;;;32.15;15.18;;;;;;;;;;5039682;28;20318;-62
2022/10/30 02:45:30;;;;;;;26.98;14.43;;;;;;;;;;5039798;28;20714;-62
2022/10/30 02:47:58;;;;;;;23.95;13.90;;;;;;;;;;5044367;28;20094;-62
2022/10/30 02:50:25;;;;;;;22.77;13.15;;;;;;;;;;5046598;28;20067;-63
2022/10/30 02:52:51;;;;;;;29.15;14.25;;;;;;;;;;5045065;28;20069;-63
2022/10/30 02:55:17;;;;;;;27.67;13.82;;;;;;;;;;5045869;28;20083;-62
2022/10/30 02:57:43;;;;;;;26.95;14.32;;;;;;;;;;5045879;28;20118;-62
2022/10/30 03:00:10;;;;;;;25.50;14.65;;;;;;;;;;5045605;28;20519;-62
2022/10/30 03:02:36;;;;;;;28.05;15.52;;;;;;;;;;5045618;28;20037;-62
2022/10/30 03:05:03;;;;;;;28.95;15.80;;;;;;;;;;5044045;28;20041;-62
2022/10/30 03:07:29;;;;;;;32.25;15.77;;;;;;;;;;5044360;28;20041;-62
2022/10/30 03:09:55;;;;;;;30.00;15.32;;;;;;;;;;5047036;28;20033;-62
2022/10/30 03:12:22;;;;;;;34.20;15.15;;;;;;;;;;5042903;28;20073;-63
2022/10/30 03:14:48;;;;;;;27.00;15.13;;;;;;;;;;5046671;28;20049;-62
2022/10/30 03:17:15;;;;;;;35.30;15.82;;;;;;;;;;5041883;28;20091;-62
2022/10/30 03:19:41;;;;;;;31.50;15.50;;;;;;;;;;5037846;28;20127;-62
2022/10/30 03:22:07;;;;;;;31.25;15.27;;;;;;;;;;5039526;28;20041;-62
2022/10/30 03:24:33;;;;;;;32.22;16.77;;;;;;;;;;5036927;28;20055;-62
2022/10/30 03:26:59;;;;;;;28.42;15.18;;;;;;;;;;5040930;28;20071;-63
2022/10/30 03:29:25;;;;;;;33.15;15.63;;;;;;;;;;5036156;28;20488;-62
2022/10/30 03:31:52;;;;;;;27.48;14.82;;;;;;;;;;5038087;28;20103;-62
2022/10/30 03:34:18;;;;;;;31.85;14.85;;;;;;;;;;5037736;28;20129;-62
2022/10/30 03:36:44;;;;;;;31.77;16.20;;;;;;;;;;5036078;28;20044;-62
2022/10/30 03:39:10;;;;;;;29.60;15.68;;;;;;;;;;5035119;28;20048;-62
2022/10/30 03:41:36;;;;;;;29.20;15.18;;;;;;;;;;5068391;28;20048;-62
2022/10/30 03:44:03;;;;;;;26.98;14.95;;;;;;;;;;5035499;28;20037;-62
2022/10/30 03:46:30;;;;;;;36.58;16.33;;;;;;;;;;5036018;28;20048;-62
2022/10/30 03:48:56;;;;;;;29.48;15.45;;;;;;;;;;5037253;28;20766;-62
2022/10/30 03:51:22;;;;;;;31.05;16.20;;;;;;;;;;5033271;28;20061;-63
2022/10/30 03:53:48;;;;;;;31.15;15.60;;;;;;;;;;5035807;28;20041;-62
2022/10/30 03:56:15;;;;;;;32.13;16.42;;;;;;;;;;5038741;28;20041;-62
2022/10/30 03:58:41;;;;;;;30.80;16.55;;;;;;;;;;5036368;28;20041;-62
2022/10/30 04:01:07;;;;;;;29.35;15.43;;;;;;;;;;5036485;28;20455;-62
2022/10/30 04:03:34;;;;;;;33.67;15.77;;;;;;;;;;5039709;28;20068;-62
2022/10/30 04:06:00;;;;;;;28.08;15.63;;;;;;;;;;5037858;28;20503;-62
2022/10/30 04:08:26;;;;;;;35.45;17.02;;;;;;;;;;5033285;28;20041;-62
2022/10/30 04:10:52;;;;;;;25.98;16.48;;;;;;;;;;5035351;28;20064;-62
2022/10/30 04:13:19;;;;;;;35.28;17.85;;;;;;;;;;5036521;28;20120;-63
2022/10/30 04:15:48;;;;;;;35.08;17.98;;;;;;;;;;5037667;28;20059;-62
2022/10/30 04:18:15;;;;;;;35.70;17.73;;;;;;;;;;5035471;28;20053;-63
2022/10/30 04:20:41;;;;;;;40.17;19.58;;;;;;;;;;5035603;28;20491;-63
2022/10/30 04:23:10;;;;;;;44.63;18.27;;;;;;;;;;5037370;28;20197;-62
2022/10/30 04:25:36;;;;;;;42.45;18.92;;;;;;;;;;5038193;28;20124;-63
2022/10/30 04:28:02;;;;;;;36.08;19.05;;;;;;;;;;5036110;28;20037;-63
2022/10/30 04:30:33;;;;;;;28.67;17.85;;;;;;;;;;5036120;28;20052;-62
2022/10/30 04:33:00;;;;;;;35.33;18.75;;;;;;;;;;5036514;28;20053;-63
2022/10/30 04:35:28;;;;;;;35.10;16.75;;;;;;;;;;5034917;28;20057;-62
2022/10/30 04:37:56;;;;;;;36.13;18.02;;;;;;;;;;5037800;28;20512;-62
2022/10/30 04:40:23;;;;;;;28.83;17.67;;;;;;;;;;5039378;28;20139;-63
2022/10/30 04:42:50;;;;;;;37.13;18.25;;;;;;;;;;5045071;28;20077;-63
2022/10/30 04:45:16;;;;;;;27.50;16.75;;;;;;;;;;5070405;28;20084;-62
2022/10/30 04:47:42;;;;;;;37.58;19.48;;;;;;;;;;5044161;28;20037;-62
2022/10/30 04:50:09;;;;;;;36.10;18.42;;;;;;;;;;5045318;28;20052;-62
2022/10/30 04:52:36;;;;;;;33.10;17.58;;;;;;;;;;5045620;28;20436;-63
2022/10/30 04:55:02;;;;;;;33.42;18.52;;;;;;;;;;5037422;28;20057;-62
2022/10/30 04:57:30;;;;;;;35.05;20.08;;;;;;;;;;5042143;28;20077;-62
2022/10/30 04:59:57;;;;;;;42.47;18.27;;;;;;;;;;5041789;28;20049;-63
2022/10/30 05:02:23;;;;;;;38.75;18.67;;;;;;;;;;5043224;28;21134;-62
2022/10/30 05:04:49;;;;;;;40.25;19.42;;;;;;;;;;5042008;28;20060;-62
2022/10/30 05:07:16;;;;;;;39.38;20.00;;;;;;;;;;5041342;28;20056;-61
2022/10/30 05:09:43;;;;;;;39.75;18.88;;;;;;;;;;5032343;28;20473;-63
2022/10/30 05:12:10;;;;;;;41.38;19.55;;;;;;;;;;5038450;28;20120;-62
2022/10/30 05:14:36;;;;;;;44.83;18.95;;;;;;;;;;5038234;28;20048;-63
2022/10/30 05:17:02;;;;;;;42.20;20.85;;;;;;;;;;5042502;28;20040;-63
2022/10/30 05:19:29;;;;;;;36.83;19.30;;;;;;;;;;5035981;28;20084;-62
2022/10/30 05:21:55;;;;;;;34.20;18.95;;;;;;;;;;5035796;28;20102;-62
2022/10/30 05:24:21;;;;;;;41.55;20.45;;;;;;;;;;5034913;28;20492;-62
2022/10/30 05:26:47;;;;;;;32.67;20.38;;;;;;;;;;5034842;28;20040;-62
2022/10/30 05:29:13;;;;;;;40.35;19.63;;;;;;;;;;5036399;28;20045;-63
2022/10/30 05:31:40;;;;;;;40.97;19.77;;;;;;;;;;5033687;28;20404;-62
2022/10/30 05:34:06;;;;;;;41.17;21.42;;;;;;;;;;5035330;28;20088;-62
2022/10/30 05:36:32;;;;;;;41.42;21.25;;;;;;;;;;5039609;28;20239;-63
2022/10/30 05:38:58;;;;;;;39.70;19.80;;;;;;;;;;5042789;28;20045;-62
2022/10/30 05:41:25;;;;;;;46.92;20.13;;;;;;;;;;5039891;28;20587;-62
2022/10/30 05:43:51;;;;;;;36.97;21.02;;;;;;;;;;5036974;28;20068;-62
2022/10/30 05:46:17;;;;;;;43.17;21.73;;;;;;;;;;5038465;28;20041;-62
2022/10/30 05:48:43;;;;;;;40.10;19.98;;;;;;;;;;5041250;28;20670;-62
2022/10/30 05:51:09;;;;;;;39.38;21.13;;;;;;;;;;5037158;28;20045;-62
2022/10/30 05:53:35;;;;;;;42.85;21.42;;;;;;;;;;5038661;28;20135;-62
2022/10/30 05:56:02;;;;;;;44.88;20.42;;;;;;;;;;5041740;28;20473;-62
2022/10/30 05:58:28;;;;;;;38.58;20.73;;;;;;;;;;5035340;28;20059;-62
2022/10/30 06:00:54;;;;;;;38.97;19.83;;;;;;;;;;5037245;28;20052;-62
2022/10/30 06:03:20;;;;;;;41.60;21.00;;;;;;;;;;5041321;28;20045;-63
2022/10/30 06:05:47;;;;;;;42.83;20.90;;;;;;;;;;5051128;28;21020;-62
2022/10/30 06:08:15;;;;;;;41.47;21.75;;;;;;;;;;5039806;28;20418;-62
2022/10/30 06:10:41;;;;;;;41.75;20.10;;;;;;;;;;5039235;28;20446;-62
2022/10/30 06:13:09;;;;;;;47.22;23.17;;;;;;;;;;5041458;28;20144;-63
2022/10/30 06:15:35;;;;;;;42.80;21.35;;;;;;;;;;5040848;28;20044;-63
2022/10/30 06:18:02;;;;;;;42.67;21.70;;;;;;;;;;5039242;28;20057;-63
2022/10/30 06:20:29;;;;;;;47.20;21.30;;;;;;;;;;5038125;28;20404;-62
2022/10/30 06:23:02;;;;;;;46.53;20.42;;;;;;;;;;5038500;28;20099;-63
2022/10/30 06:25:30;;;;;;;39.85;21.80;;;;;;;;;;5038514;28;20642;-62
2022/10/30 06:27:57;;;;;;;46.55;21.48;;;;;;;;;;5038605;28;20037;-62
2022/10/30 06:30:23;;;;;;;42.83;21.35;;;;;;;;;;5040726;28;20037;-62
2022/10/30 06:32:50;;;;;;;41.47;20.85;;;;;;;;;;5035918;28;20071;-62
2022/10/30 06:35:16;;;;;;;39.72;21.02;;;;;;;;;;5040652;28;20072;-62
2022/10/30 06:37:46;;;;;;;47.05;22.95;;;;;;;;;;5038150;28;20053;-62
2022/10/30 06:40:12;;;;;;;42.10;21.65;;;;;;;;;;5041495;28;20049;-62
2022/10/30 06:42:44;;;;;;;42.03;21.42;;;;;;;;;;5039215;28;20282;-61
2022/10/30 06:45:11;;;;;;;44.63;20.27;;;;;;;;;;5039271;28;20113;-62
2022/10/30 06:47:37;;;;;;;44.85;21.35;;;;;;;;;;5043769;28;20048;-62
2022/10/30 06:50:04;;;;;;;44.42;22.63;;;;;;;;;;5045286;28;20403;-62
2022/10/30 06:52:31;;;;;;;42.33;22.38;;;;;;;;;;5044847;28;20037;-62
2022/10/30 06:54:57;;;;;;;44.28;23.13;;;;;;;;;;5039834;28;20084;-66
2022/10/30 06:57:23;;;;;;;43.38;21.83;;;;;;;;;;5038702;28;20408;-62
2022/10/30 06:59:49;;;;;;;42.47;21.27;;;;;;;;;;5040526;28;20041;-62
2022/10/30 07:02:15;;;;;;;46.50;22.90;;;;;;;;;;5038865;28;20072;-62
2022/10/30 07:04:44;;;;;;;41.45;21.70;;;;;;;;;;5038985;28;20140;-62
2022/10/30 07:07:11;;;;;;;45.05;23.17;;;;;;;;;;5068643;28;20466;-62
2022/10/30 07:09:37;;;;;;;42.67;23.15;;;;;;;;;;5040022;28;20055;-62
2022/10/30 07:12:03;;;;;;;47.95;24.75;;;;;;;;;;5036620;28;20102;-62
2022/10/30 07:14:29;;;;;;;47.03;25.98;;;;;;;;;;5039631;28;20084;-63
2022/10/30 07:16:55;;;;;;;52.88;27.73;;;;;;;;;;5038096;28;20142;-62
2022/10/30 07:19:22;;;;;;;53.33;27.45;;;;;;;;;;5039856;28;20051;-62
2022/10/30 07:21:48;;;;;;;56.60;27.67;;;;;;;;;;5041189;28;20057;-62
2022/10/30 07:24:15;;;;;;;54.63;28.25;;;;;;;;;;5043592;28;20041;-63
2022/10/30 07:26:41;;;;;;;53.70;27.20;;;;;;;;;;5036332;28;20041;-62
2022/10/30 07:29:07;;;;;;;52.08;27.35;;;;;;;;;;5033240;28;20477;-62
2022/10/30 07:31:33;;;;;;;54.40;28.23;;;;;;;;;;5040416;28;20137;-62
2022/10/30 07:34:00;;;;;;;49.92;26.65;;;;;;;;;;5038007;28;20037;-62
2022/10/30 07:36:26;;;;;;;47.83;26.08;;;;;;;;;;5042473;28;20083;-62
2022/10/30 07:38:52;;;;;;;54.20;28.58;;;;;;;;;;5039966;28;20047;-62
2022/10/30 07:41:19;;;;;;;62.30;28.70;;;;;;;;;;5068093;28;20063;-62
2022/10/30 07:43:45;;;;;;;51.83;27.65;;;;;;;;;;5031892;28;20520;-68
2022/10/30 07:46:12;;;;;;;49.40;26.10;;;;;;;;;;5071087;28;20069;-72
2022/10/30 07:48:38;;;;;;;53.42;26.42;;;;;;;;;;5068004;28;20044;-62
2022/10/30 07:51:04;;;;;;;53.40;27.40;;;;;;;;;;5034668;28;20531;-63
2022/10/30 07:53:31;;;;;;;50.10;26.58;;;;;;;;;;5035543;28;20063;-63
2022/10/30 07:55:57;;;;;;;51.85;26.88;;;;;;;;;;5071914;28;20044;-62
2022/10/30 07:58:23;;;;;;;46.45;27.13;;;;;;;;;;5039426;28;20595;-62
2022/10/30 08:00:50;;;;;;;51.33;27.25;;;;;;;;;;5039348;28;20048;-62
2022/10/30 08:03:16;;;;;;;50.53;27.52;;;;;;;;;;5037702;28;20116;-62
2022/10/30 08:05:42;;;;;;;49.85;26.33;;;;;;;;;;5041320;28;20041;-62
2022/10/30 08:08:09;;;;;;;51.53;26.88;;;;;;;;;;5037429;28;20049;-62
2022/10/30 08:10:35;;;;;;;44.60;25.85;;;;;;;;;;5068768;28;20084;-62
2022/10/30 08:13:02;;;;;;;53.90;28.52;;;;;;;;;;5038814;28;20056;-62
2022/10/30 08:15:28;;;;;;;52.50;25.77;;;;;;;;;;5040366;28;20053;-63
2022/10/30 08:17:54;;;;;;;49.80;27.42;;;;;;;;;;5039575;28;20392;-62
2022/10/30 08:20:22;;;;;;;45.17;25.45;;;;;;;;;;5038257;28;20041;-62
2022/10/30 08:22:49;;;;;;;45.33;25.60;;;;;;;;;;5070418;28;20045;-62
2022/10/30 08:25:17;;;;;;;50.72;27.73;;;;;;;;;;5039295;28;20092;-62
2022/10/30 08:27:57;;;;;;;52.28;26.88;;;;;;;;;;5037953;28;20048;-63
2022/10/30 08:30:25;;;;;;;40.38;24.70;;;;;;;;;;5038345;28;20064;-63
2022/10/30 08:32:51;;;;;;;36.92;24.90;;;;;;;;;;5036427;28;20056;-62
2022/10/30 08:35:17;;;;;;;44.60;24.85;;;;;;;;;;5039015;28;20464;-62
2022/10/30 08:37:43;;;;;;;48.00;25.10;;;;;;;;;;5069680;28;20452;-62
2022/10/30 08:40:10;;;;;;;42.65;24.92;;;;;;;;;;5038386;28;20049;-63
2022/10/30 08:42:37;;;;;;;40.85;25.00;;;;;;;;;;5039187;28;20118;-62
2022/10/30 08:45:04;;;;;;;48.60;24.98;;;;;;;;;;5038496;28;20057;-62
2022/10/30 08:47:30;;;;;;;46.97;23.83;;;;;;;;;;5040038;28;20115;-63
2022/10/30 08:49:56;;;;;;;35.47;22.65;;;;;;;;;;5069381;28;20052;-62
2022/10/30 08:52:22;;;;;;;38.70;22.83;;;;;;;;;;5039217;28;20043;-63
2022/10/30 08:54:48;;;;;;;35.00;21.10;;;;;;;;;;5038513;28;20147;-62
2022/10/30 08:57:15;;;;;;;46.03;21.88;;;;;;;;;;5040649;28;20445;-62
2022/10/30 08:59:41;;;;;;;38.05;21.67;;;;;;;;;;5036890;28;20040;-62
2022/10/30 09:02:08;;;;;;;34.88;20.45;;;;;;;;;;5037057;28;20049;-62
2022/10/30 09:04:34;;;;;;;35.88;21.77;;;;;;;;;;5041050;28;20447;-61
2022/10/30 09:07:01;;;;;;;37.65;23.40;;;;;;;;;;5034126;28;20041;-60
2022/10/30 09:09:27;;;;;;;37.75;22.10;;;;;;;;;;5034636;28;20029;-61
2022/10/30 09:11:53;;;;;;;35.95;22.67;;;;;;;;;;5044230;28;20055;-61
2022/10/30 09:14:20;;;;;;;36.70;21.27;;;;;;;;;;5069967;28;20136;-61
2022/10/30 09:16:48;;;;;;;35.67;20.77;;;;;;;;;;5045892;28;20041;-61
2022/10/30 09:19:14;;;;;;;33.00;19.88;;;;;;;;;;5042133;28;20076;-61
2022/10/30 09:21:40;;;;;;;36.58;20.98;;;;;;;;;;5040883;28;20041;-61
2022/10/30 09:24:06;;;;;;;33.95;19.33;;;;;;;;;;5045616;28;20041;-61
2022/10/30 09:26:33;;;;;;;33.97;20.55;;;;;;;;;;5043581;28;20045;-61
2022/10/30 09:28:59;;;;;;;35.70;19.77;;;;;;;;;;5047709;28;21835;-61
2022/10/30 09:31:25;;;;;;;31.15;20.15;;;;;;;;;;5046836;28;20068;-61
2022/10/30 09:33:51;;;;;;;33.47;19.85;;;;;;;;;;5041354;28;20373;-61
2022/10/30 09:36:17;;;;;;;31.73;19.70;;;;;;;;;;5070743;28;20190;-61
2022/10/30 09:38:44;;;;;;;34.25;20.38;;;;;;;;;;5044876;28;20105;-61
2022/10/30 09:41:18;;;;;;;30.73;18.90;;;;;;;;;;5044800;28;20051;-61
2022/10/30 09:43:57;;;;;;;32.10;19.48;;;;;;;;;;5046889;28;20132;-61
2022/10/30 09:46:32;;;;;;;31.17;17.83;;;;;;;;;;5045300;28;20041;-60
2022/10/30 09:49:04;;;;;;;30.65;16.98;;;;;;;;;;5043538;28;20155;-61
2022/10/30 09:51:42;;;;;;;36.90;17.70;;;;;;;;;;5044636;28;20055;-61
2022/10/30 09:54:20;;;;;;;35.58;17.20;;;;;;;;;;5072971;28;20053;-69
2022/10/30 09:56:49;;;;;;;35.90;17.05;;;;;;;;;;5046850;28;20051;-61
2022/10/30 09:59:42;;;;;;;29.45;16.60;;;;;;;;;;5045781;28;20722;-61
2022/10/30 10:02:16;;;;;;;32.07;17.03;;;;;;;;;;5040819;28;20710;-68
2022/10/30 10:04:44;;;;;;;29.60;17.30;;;;;;;;;;5043554;28;20046;-61
2022/10/30 10:07:15;;;;;;;28.83;16.67;;;;;;;;;;5075415;28;20040;-61
2022/10/30 10:09:43;;;;;;;30.60;15.98;;;;;;;;;;5070852;28;20041;-61
2022/10/30 10:12:11;;;;;;;30.67;17.13;;;;;;;;;;5073019;28;20045;-61
2022/10/30 10:14:41;;;;;;;30.02;15.40;;;;;;;;;;5039457;28;20045;-61
2022/10/30 10:17:11;;;;;;;24.55;15.35;;;;;;;;;;5043338;28;21168;-61
2022/10/30 10:19:41;;;;;;;27.63;15.75;;;;;;;;;;5043166;28;20052;-61
2022/10/30 10:22:17;;;;;;;28.25;14.50;;;;;;;;;;5041823;28;20164;-61
2022/10/30 10:24:46;;;;;;;28.30;15.07;;;;;;;;;;5040488;28;20090;-61
2022/10/30 10:27:37;;;;;;;28.83;16.08;;;;;;;;;;5043370;28;20574;-61
2022/10/30 10:30:04;;;;;;;24.42;14.30;;;;;;;;;;5043079;28;20041;-61
2022/10/30 10:32:33;;;;;;;33.05;16.08;;;;;;;;;;5042111;28;20075;-61
2022/10/30 10:35:10;;;;;;;28.38;14.63;;;;;;;;;;5043117;28;20079;-61
2022/10/30 10:37:43;;;;;;;30.08;15.45;;;;;;;;;;5042984;28;20045;-61
2022/10/30 10:40:15;;;;;;;31.73;15.48;;;;;;;;;;5041453;28;20069;-61
2022/10/30 10:43:04;;;;;;;34.25;14.88;;;;;;;;;;5038163;28;20141;-61
2022/10/30 10:45:30;;;;;;;25.85;13.27;;;;;;;;;;5041427;28;20052;-61
2022/10/30 10:48:00;;;;;;;27.92;14.65;;;;;;;;;;5042255;28;20544;-61
2022/10/30 10:50:29;;;;;;;25.45;14.80;;;;;;;;;;5042381;28;20051;-61
2022/10/30 10:52:59;;;;;;;26.35;14.25;;;;;;;;;;5039217;28;20072;-61
2022/10/30 10:55:28;;;;;;;26.30;14.38;;;;;;;;;;5039537;28;20134;-61
2022/10/30 10:57:57;;;;;;;28.30;13.50;;;;;;;;;;5038570;28;20052;-61
2022/10/30 11:00:24;;;;;;;24.35;12.88;;;;;;;;;;5040252;28;20044;-61
2022/10/30 11:03:06;;;;;;;20.88;13.40;;;;;;;;;;5041453;28;20048;-61
2022/10/30 11:05:35;;;;;;;20.50;12.88;;;;;;;;;;5041809;28;20071;-61
2022/10/30 11:08:09;;;;;;;21.77;12.82;;;;;;;;;;5042333;28;20033;-61
2022/10/30 11:10:35;;;;;;;28.77;13.13;;;;;;;;;;5042029;28;20207;-61
2022/10/30 11:13:01;;;;;;;21.67;11.82;;;;;;;;;;5040250;28;20497;-61
2022/10/30 11:15:32;;;;;;;26.90;11.50;;;;;;;;;;5036328;28;20044;-61
2022/10/30 11:18:01;;;;;;;19.13;11.43;;;;;;;;;;5038381;28;20392;-61
2022/10/30 11:20:37;;;;;;;21.35;12.02;;;;;;;;;;5038041;28;20135;-61
2022/10/30 11:23:03;;;;;;;19.10;11.07;;;;;;;;;;5040031;28;20435;-61
2022/10/30 11:25:34;;;;;;;18.77;10.48;;;;;;;;;;5041546;28;20114;-61
2022/10/30 11:28:03;;;;;;;25.77;11.63;;;;;;;;;;5066270;28;20143;-61
2022/10/30 11:30:29;;;;;;;22.00;11.07;;;;;;;;;;5037792;28;20060;-61
2022/10/30 11:32:56;;;;;;;21.73;10.98;;;;;;;;;;5039814;28;20045;-61
2022/10/30 11:35:23;;;;;;;19.15;9.55;;;;;;;;;;5040531;28;20041;-61
2022/10/30 11:37:50;;;;;;;21.05;10.10;;;;;;;;;;5040040;28;20049;-61
2022/10/30 11:40:21;;;;;;;20.88;10.50;;;;;;;;;;5042480;28;20382;-60
2022/10/30 11:42:48;;;;;;;24.25;10.93;;;;;;;;;;5039818;28;20390;-61
2022/10/30 11:45:18;;;;;;;19.60;10.10;;;;;;;;;;5043188;28;20055;-61
2022/10/30 11:47:44;;;;;;;22.30;9.48;;;;;;;;;;5039701;28;20492;-61
2022/10/30 11:50:19;;;;;;;24.77;10.52;;;;;;;;;;5041978;28;20029;-61
2022/10/30 11:52:47;;;;;;;21.33;9.95;;;;;;;;;;5040730;28;20352;-71
2022/10/30 11:55:14;;;;;;;19.63;9.80;;;;;;;;;;5039234;28;20053;-62
2022/10/30 11:57:42;;;;;;;22.13;11.07;;;;;;;;;;5070510;28;20057;-61
2022/10/30 12:00:15;;;;;;;22.48;9.57;;;;;;;;;;5037869;28;20139;-61
2022/10/30 12:02:42;;;;;;;22.10;11.40;;;;;;;;;;5038749;28;20041;-61
2022/10/30 12:05:25;;;;;;;22.85;10.20;;;;;;;;;;5040763;28;20060;-62
2022/10/30 12:07:53;;;;;;;21.73;10.48;;;;;;;;;;5066639;28;20438;-61
2022/10/30 12:10:24;;;;;;;22.02;10.75;;;;;;;;;;5038950;28;20680;-61
2022/10/30 12:12:50;;;;;;;24.73;11.63;;;;;;;;;;5040381;28;20396;-62
2022/10/30 12:15:19;;;;;;;20.45;8.98;;;;;;;;;;5042939;28;20094;-61
2022/10/30 12:17:52;;;;;;;21.48;10.23;;;;;;;;;;5040818;28;20776;-62
2022/10/30 12:20:19;;;;;;;22.48;10.52;;;;;;;;;;5042088;28;20985;-61
2022/10/30 12:22:46;;;;;;;23.10;10.05;;;;;;;;;;5041723;28;20049;-61
2022/10/30 12:25:20;;;;;;;21.60;9.73;;;;;;;;;;5041828;28;20041;-62
2022/10/30 12:27:46;;;;;;;25.35;10.45;;;;;;;;;;5039511;28;20404;-61
2022/10/30 12:30:13;;;;;;;23.38;9.50;;;;;;;;;;5042258;28;20098;-61
2022/10/30 12:32:40;;;;;;;20.60;9.40;;;;;;;;;;5040450;28;20121;-61
2022/10/30 12:35:14;;;;;;;20.02;8.60;;;;;;;;;;5073653;28;20048;-61
2022/10/30 12:37:42;;;;;;;18.17;8.30;;;;;;;;;;5072680;28;20160;-61
2022/10/30 12:40:14;;;;;;;16.42;8.05;;;;;;;;;;5041318;28;20052;-61
2022/10/30 12:42:45;;;;;;;14.63;8.23;;;;;;;;;;5043201;28;20468;-62
2022/10/30 12:45:20;;;;;;;17.05;8.77;;;;;;;;;;5043841;28;20060;-62
2022/10/30 12:47:51;;;;;;;19.55;9.07;;;;;;;;;;5047712;28;20036;-61
2022/10/30 12:50:38;;;;;;;18.95;9.07;;;;;;;;;;5045010;28;20123;-61
2022/10/30 12:53:15;;;;;;;16.42;8.85;;;;;;;;;;5040098;28;20076;-61
2022/10/30 12:55:45;;;;;;;17.77;9.02;;;;;;;;;;5043232;28;20045;-61
2022/10/30 12:58:19;;;;;;;21.45;9.02;;;;;;;;;;5040984;28;20049;-61
2022/10/30 13:00:51;;;;;;;26.33;9.77;;;;;;;;;;5043778;28;20065;-61
2022/10/30 13:03:29;;;;;;;19.58;9.18;;;;;;;;;;5046012;28;20061;-62
2022/10/30 13:05:59;;;;;;;20.75;9.18;;;;;;;;;;5044722;28;20128;-62
2022/10/30 13:08:26;;;;;;;19.60;9.25;;;;;;;;;;5042584;28;20041;-61
2022/10/30 13:10:54;;;;;;;19.88;9.75;;;;;;;;;;5045536;28;20623;-61
2022/10/30 13:13:22;;;;;;;22.35;8.93;;;;;;;;;;5043999;28;20080;-60
2022/10/30 13:15:50;;;;;;;16.27;9.18;;;;;;;;;;5042452;28;20095;-61
2022/10/30 13:18:18;;;;;;;18.92;9.13;;;;;;;;;;5045779;28;20044;-61
2022/10/30 13:20:53;;;;;;;16.38;9.82;;;;;;;;;;5043588;28;20460;-61
2022/10/30 13:23:21;;;;;;;18.80;8.90;;;;;;;;;;5058329;28;20102;-61
2022/10/30 13:26:01;;;;;;;18.15;9.63;;;;;;;;;;5045133;28;20073;-60
2022/10/30 13:28:32;;;;;;;21.15;9.30;;;;;;;;;;5045194;28;20037;-61
2022/10/30 13:31:01;;;;;;;17.88;8.55;;;;;;;;;;5045306;28;20048;-60
2022/10/30 13:33:36;;;;;;;17.13;8.05;;;;;;;;;;5044820;28;20160;-61
2022/10/30 13:36:07;;;;;;;15.88;8.82;;;;;;;;;;5040367;28;20203;-61
2022/10/30 13:38:50;;;;;;;20.70;9.27;;;;;;;;;;5043822;28;20140;-60
2022/10/30 13:41:24;;;;;;;20.60;9.15;;;;;;;;;;5044836;28;20041;-61
2022/10/30 13:44:03;;;;;;;20.42;8.73;;;;;;;;;;5043785;28;20087;-61
2022/10/30 13:46:45;;;;;;;19.98;9.30;;;;;;;;;;5043932;28;20041;-61
2022/10/30 13:49:11;;;;;;;23.35;10.40;;;;;;;;;;5043036;28;20045;-61
2022/10/30 13:51:59;;;;;;;21.40;9.70;;;;;;;;;;5044498;28;20060;-61
2022/10/30 13:54:31;;;;;;;25.00;10.68;;;;;;;;;;5044016;28;20055;-60
2022/10/30 13:57:03;;;;;;;22.92;10.25;;;;;;;;;;5040913;28;20123;-61
2022/10/30 13:59:39;;;;;;;21.70;10.35;;;;;;;;;;5040025;28;20122;-61
2022/10/30 14:02:19;;;;;;;19.83;9.63;;;;;;;;;;5044051;28;20468;-60
2022/10/30 14:04:54;;;;;;;28.88;11.35;;;;;;;;;;5041991;28;20048;-61
2022/10/30 14:07:21;;;;;;;22.25;10.10;;;;;;;;;;5039798;28;20045;-61
2022/10/30 14:09:50;;;;;;;20.40;9.60;;;;;;;;;;5042167;28;20041;-61
2022/10/30 14:12:35;;;;;;;20.85;10.07;;;;;;;;;;5044754;28;20060;-61
2022/10/30 14:15:04;;;;;;;18.88;9.98;;;;;;;;;;5043413;28;20033;-61
2022/10/30 14:17:30;;;;;;;26.10;10.55;;;;;;;;;;5041087;28;20041;-60
2022/10/30 14:20:05;;;;;;;25.27;10.50;;;;;;;;;;5043689;28;20037;-61
2022/10/30 14:22:32;;;;;;;19.23;10.02;;;;;;;;;;5042304;28;20163;-61
2022/10/30 14:24:59;;;;;;;22.00;11.07;;;;;;;;;;5043118;28;20048;-61
2022/10/30 14:27:27;;;;;;;19.83;9.85;;;;;;;;;;5041177;28;20064;-61